createdAt,value
2022-11-12T00:01:28.431Z,5.42
2022-11-12T00:03:55.047Z,5.40
2022-11-12T00:06:21.653Z,5.37
2022-11-12T00:08:49.692Z,5.36
2022-11-12T00:11:16.412Z,5.34
2022-11-12T00:13:43.085Z,5.30
2022-11-12T00:16:09.707Z,5.28
2022-11-12T00:18:36.542Z,5.25
2022-11-12T00:21:03.103Z,5.23
2022-11-12T00:23:29.871Z,5.19
2022-11-12T00:26:01.638Z,5.17
2022-11-12T00:28:31.049Z,5.16
2022-11-12T00:31:06.283Z,5.14
2022-11-12T00:33:32.819Z,5.11
2022-11-12T00:35:59.630Z,5.10
2022-11-12T00:38:26.450Z,5.07
2022-11-12T00:40:53.227Z,5.05
2022-11-12T00:43:21.174Z,5.02
2022-11-12T00:45:47.804Z,4.99
2022-11-12T00:48:14.344Z,4.98
2022-11-12T00:50:40.966Z,4.96
2022-11-12T00:53:07.616Z,4.95
2022-11-12T00:55:34.244Z,4.94
2022-11-12T00:58:00.798Z,4.90
2022-11-12T01:00:28.894Z,4.88
2022-11-12T01:02:55.817Z,4.85
2022-11-12T01:05:22.411Z,4.83
2022-11-12T01:07:54.728Z,4.82
2022-11-12T01:10:22.693Z,4.81
2022-11-12T01:12:49.347Z,4.77
2022-11-12T01:15:16.061Z,4.75
2022-11-12T01:17:44.095Z,4.73
2022-11-12T01:20:11.200Z,4.72
2022-11-12T01:22:37.796Z,4.69
2022-11-12T01:25:05.307Z,4.68
2022-11-12T01:27:33.331Z,4.67
2022-11-12T01:29:59.933Z,4.65
2022-11-12T01:32:26.521Z,4.63
2022-11-12T01:34:54.863Z,4.63
2022-11-12T01:37:21.420Z,4.62
2022-11-12T01:39:48.035Z,4.59
2022-11-12T01:42:14.673Z,4.57
2022-11-12T01:44:44.463Z,4.55
2022-11-12T01:47:17.251Z,4.53
2022-11-12T01:49:53.368Z,4.51
2022-11-12T01:52:28.523Z,4.48
2022-11-12T01:55:00.631Z,4.47
2022-11-12T01:57:35.149Z,4.44
2022-11-12T02:00:07.587Z,4.42
2022-11-12T02:02:35.284Z,4.39
2022-11-12T02:05:02.853Z,4.38
2022-11-12T02:07:32.454Z,4.35
2022-11-12T02:10:01.164Z,4.35
2022-11-12T02:12:28.330Z,4.34
2022-11-12T02:14:55.046Z,4.32
2022-11-12T02:17:21.753Z,4.30
2022-11-12T02:19:48.299Z,4.29
2022-11-12T02:22:16.233Z,4.28
2022-11-12T02:24:42.893Z,4.26
2022-11-12T02:27:11.256Z,4.25
2022-11-12T02:29:38.054Z,4.24
2022-11-12T02:32:05.095Z,4.21
2022-11-12T02:34:31.728Z,4.19
2022-11-12T02:36:58.388Z,4.17
2022-11-12T02:39:26.376Z,4.15
2022-11-12T02:41:52.964Z,4.14
2022-11-12T02:44:19.646Z,4.11
2022-11-12T02:46:46.280Z,4.09
2022-11-12T02:49:12.911Z,4.08
2022-11-12T02:51:39.522Z,4.06
2022-11-12T02:54:06.118Z,4.05
2022-11-12T02:56:34.135Z,4.04
2022-11-12T02:59:01.049Z,4.03
2022-11-12T03:01:27.665Z,4.02
2022-11-12T03:03:54.298Z,4.00
2022-11-12T03:06:20.910Z,3.99
2022-11-12T03:08:47.515Z,3.98
2022-11-12T03:11:15.824Z,3.98
2022-11-12T03:13:44.386Z,3.97
2022-11-12T03:16:10.996Z,3.97
2022-11-12T03:18:37.576Z,3.96
2022-11-12T03:21:04.600Z,3.97
2022-11-12T03:23:31.225Z,3.97
2022-11-12T03:25:57.830Z,3.97
2022-11-12T03:28:24.665Z,3.95
2022-11-12T03:30:57.282Z,3.93
2022-11-12T03:33:24.197Z,3.90
2022-11-12T03:35:50.878Z,3.90
2022-11-12T03:38:17.461Z,3.88
2022-11-12T03:40:44.018Z,3.87
2022-11-12T03:43:10.583Z,3.85
2022-11-12T03:45:37.246Z,3.82
2022-11-12T03:48:06.120Z,3.82
2022-11-12T03:50:32.684Z,3.79
2022-11-12T03:52:59.956Z,3.80
2022-11-12T03:55:29.178Z,3.80
2022-11-12T03:57:56.836Z,3.77
2022-11-12T04:00:25.371Z,3.75
2022-11-12T04:02:52.008Z,3.74
2022-11-12T04:05:20.753Z,3.74
2022-11-12T04:07:49.161Z,3.73
2022-11-12T04:10:15.824Z,3.73
2022-11-12T04:12:42.446Z,3.72
2022-11-12T04:15:09.833Z,3.71
2022-11-12T04:17:36.445Z,3.70
2022-11-12T04:20:03.510Z,3.70
2022-11-12T04:22:31.508Z,3.65
2022-11-12T04:24:58.057Z,3.64
2022-11-12T04:27:26.162Z,3.63
2022-11-12T04:29:54.030Z,3.61
2022-11-12T04:32:20.841Z,3.60
2022-11-12T04:34:47.787Z,3.59
2022-11-12T04:37:14.540Z,3.57
2022-11-12T04:39:42.557Z,3.56
2022-11-12T04:42:10.244Z,3.55
2022-11-12T04:44:36.799Z,3.54
2022-11-12T04:47:03.427Z,3.52
2022-11-12T04:49:30.144Z,3.51
2022-11-12T04:51:56.795Z,3.49
2022-11-12T04:54:23.405Z,3.49
2022-11-12T04:56:51.374Z,3.47
2022-11-12T04:59:17.978Z,3.46
2022-11-12T05:01:44.655Z,3.44
2022-11-12T05:04:11.285Z,3.43
2022-11-12T05:06:37.877Z,3.42
2022-11-12T05:09:04.512Z,3.40
2022-11-12T05:11:31.138Z,3.39
2022-11-12T05:13:59.194Z,3.38
2022-11-12T05:16:25.827Z,3.37
2022-11-12T05:18:52.389Z,3.35
2022-11-12T05:21:19.094Z,3.34
2022-11-12T05:23:45.686Z,3.33
2022-11-12T05:26:12.288Z,3.32
2022-11-12T05:28:38.891Z,3.32
2022-11-12T05:31:06.958Z,3.31
2022-11-12T05:33:33.558Z,3.29
2022-11-12T05:36:00.232Z,3.28
2022-11-12T05:38:26.983Z,3.27
2022-11-12T05:40:53.789Z,3.26
2022-11-12T05:43:20.410Z,3.26
2022-11-12T05:45:46.973Z,3.25
2022-11-12T05:48:17.789Z,3.25
2022-11-12T05:51:11.336Z,3.23
2022-11-12T05:53:36.674Z,3.20
2022-11-12T05:56:03.732Z,3.19
2022-11-12T05:58:30.535Z,3.17
2022-11-12T06:00:57.223Z,3.16
2022-11-12T06:03:25.703Z,3.15
2022-11-12T06:05:52.846Z,3.13
2022-11-12T06:08:19.490Z,3.11
2022-11-12T06:10:48.493Z,3.09
2022-11-12T06:13:15.479Z,3.09
2022-11-12T06:15:42.139Z,3.08
2022-11-12T06:18:08.966Z,3.06
2022-11-12T06:20:37.139Z,3.04
2022-11-12T06:23:04.260Z,3.02
2022-11-12T06:25:30.936Z,3.00
2022-11-12T06:27:57.524Z,3.01
2022-11-12T06:30:25.762Z,2.99
2022-11-12T06:32:52.677Z,2.98
2022-11-12T06:35:19.912Z,2.97
2022-11-12T06:37:48.739Z,2.97
2022-11-12T06:40:15.369Z,2.97
2022-11-12T06:42:41.931Z,2.96
2022-11-12T06:45:09.509Z,2.95
2022-11-12T06:47:36.603Z,2.97
2022-11-12T06:50:03.586Z,2.97
2022-11-12T06:52:30.197Z,2.97
2022-11-12T06:54:58.150Z,2.97
2022-11-12T06:57:24.778Z,2.97
2022-11-12T06:59:51.363Z,2.97
2022-11-12T07:02:18.087Z,3.00
2022-11-12T07:04:44.648Z,3.03
2022-11-12T07:07:11.488Z,3.08
2022-11-12T07:09:38.231Z,3.12
2022-11-12T07:12:07.070Z,3.18
2022-11-12T07:14:33.696Z,3.23
2022-11-12T07:17:00.441Z,3.29
2022-11-12T07:19:27.013Z,3.35
2022-11-12T07:21:53.676Z,3.41
2022-11-12T07:24:20.475Z,3.46
2022-11-12T07:26:47.776Z,3.53
2022-11-12T07:29:30.040Z,3.59
2022-11-12T07:32:02.552Z,3.68
2022-11-12T07:34:29.292Z,3.76
2022-11-12T07:36:55.924Z,3.83
2022-11-12T07:39:22.555Z,3.91
2022-11-12T07:41:49.110Z,3.99
2022-11-12T07:44:17.158Z,4.09
2022-11-12T07:46:43.761Z,4.18
2022-11-12T07:49:10.552Z,4.26
2022-11-12T07:51:37.252Z,4.35
2022-11-12T07:54:04.060Z,4.44
2022-11-12T07:56:30.686Z,4.52
2022-11-12T07:58:57.394Z,4.61
2022-11-12T08:01:29.747Z,4.69
2022-11-12T08:03:56.753Z,4.76
2022-11-12T08:06:23.857Z,4.83
2022-11-12T08:08:51.868Z,4.91
2022-11-12T08:11:18.521Z,4.99
2022-11-12T08:13:45.230Z,5.08
2022-11-12T08:16:11.858Z,5.15
2022-11-12T08:18:40.426Z,5.25
2022-11-12T08:21:09.791Z,5.36
2022-11-12T08:23:36.468Z,5.45
2022-11-12T08:26:05.938Z,5.57
2022-11-12T08:28:35.234Z,5.69
2022-11-12T08:31:04.087Z,5.79
2022-11-12T08:33:30.887Z,5.92
2022-11-12T08:36:02.098Z,6.05
2022-11-12T08:38:28.971Z,6.19
2022-11-12T08:40:59.436Z,6.34
2022-11-12T08:43:26.001Z,6.47
2022-11-12T08:45:52.710Z,6.62
2022-11-12T08:48:19.377Z,6.78
2022-11-12T08:50:46.046Z,6.92
2022-11-12T08:53:14.194Z,7.06
2022-11-12T08:55:40.780Z,7.18
2022-11-12T08:58:07.838Z,7.30
2022-11-12T09:00:36.261Z,7.41
2022-11-12T09:03:04.300Z,7.54
2022-11-12T09:05:31.364Z,7.66
2022-11-12T09:07:58.664Z,7.78
2022-11-12T09:10:27.284Z,7.91
2022-11-12T09:12:54.215Z,8.07
2022-11-12T09:15:38.591Z,8.23
2022-11-12T09:18:07.523Z,8.40
2022-11-12T09:20:34.307Z,8.54
2022-11-12T09:23:02.350Z,8.68
2022-11-12T09:25:30.640Z,8.81
2022-11-12T09:27:57.374Z,8.94
2022-11-12T09:30:24.074Z,9.06
2022-11-12T09:32:56.455Z,9.18
2022-11-12T09:35:23.006Z,9.32
2022-11-12T09:37:49.674Z,9.43
2022-11-12T09:40:19.074Z,9.52
2022-11-12T09:42:51.705Z,9.60
2022-11-12T09:45:25.987Z,9.64
2022-11-12T09:47:57.136Z,9.68
2022-11-12T09:50:27.379Z,9.73
2022-11-12T09:53:00.529Z,9.75
2022-11-12T09:55:31.288Z,9.80
2022-11-12T09:57:59.416Z,9.84
2022-11-12T10:00:26.168Z,9.90
2022-11-12T10:03:00.767Z,9.96
2022-11-12T10:05:33.425Z,10.01
2022-11-12T10:08:11.168Z,10.06
2022-11-12T10:10:44.559Z,10.11
2022-11-12T10:13:32.144Z,10.17
2022-11-12T10:16:07.903Z,10.24
2022-11-12T10:18:51.022Z,10.29
2022-11-12T10:21:29.680Z,10.36
2022-11-12T10:23:57.817Z,10.43
2022-11-12T10:26:25.839Z,10.48
2022-11-12T10:29:03.013Z,10.56
2022-11-12T10:31:29.726Z,10.63
2022-11-12T10:34:14.423Z,10.71
2022-11-12T10:36:45.346Z,10.79
2022-11-12T10:39:31.049Z,10.88
2022-11-12T10:42:07.018Z,10.99
2022-11-12T10:44:35.036Z,11.07
2022-11-12T10:47:22.446Z,11.17
2022-11-12T10:50:10.680Z,11.29
2022-11-12T10:52:37.426Z,11.44
2022-11-12T10:55:14.112Z,11.55
2022-11-12T10:57:41.053Z,11.65
2022-11-12T11:00:21.162Z,11.72
2022-11-12T11:02:50.441Z,11.82
2022-11-12T11:05:31.644Z,11.90
2022-11-12T11:07:58.425Z,11.98
2022-11-12T11:10:27.922Z,12.08
2022-11-12T11:13:20.293Z,12.15
2022-11-12T11:16:02.534Z,12.23
2022-11-12T11:18:30.781Z,12.30
2022-11-12T11:21:06.331Z,12.36
2022-11-12T11:23:41.757Z,12.42
2022-11-12T11:26:24.133Z,12.48
2022-11-12T11:28:59.203Z,12.57
2022-11-12T11:31:36.254Z,12.65
2022-11-12T11:34:13.733Z,12.72
2022-11-12T11:36:49.081Z,12.81
2022-11-12T11:39:24.853Z,12.88
2022-11-12T11:42:06.854Z,12.92
2022-11-12T11:44:43.033Z,12.98
2022-11-12T11:47:33.965Z,13.01
2022-11-12T11:50:22.648Z,13.10
2022-11-12T11:52:54.458Z,13.17
2022-11-12T11:55:36.817Z,13.22
2022-11-12T11:58:12.555Z,13.25
2022-11-12T12:00:50.658Z,13.27
2022-11-12T12:03:29.175Z,13.29
2022-11-12T12:06:14.351Z,13.33
2022-11-12T12:08:59.520Z,13.36
2022-11-12T12:11:32.286Z,13.41
2022-11-12T12:14:25.353Z,13.44
2022-11-12T12:17:03.866Z,13.47
2022-11-12T12:19:46.520Z,13.51
2022-11-12T12:22:18.601Z,13.55
2022-11-12T12:24:50.069Z,13.59
2022-11-12T12:27:21.119Z,13.62
2022-11-12T12:29:52.022Z,13.63
2022-11-12T12:32:25.445Z,13.65
2022-11-12T12:34:56.247Z,13.68
2022-11-12T12:37:31.727Z,13.72
2022-11-12T12:40:05.312Z,13.72
2022-11-12T12:42:38.048Z,13.73
2022-11-12T12:45:24.748Z,13.72
2022-11-12T12:47:52.387Z,13.71
2022-11-12T12:50:21.984Z,13.65
2022-11-12T12:53:15.445Z,13.60
2022-11-12T12:55:43.288Z,13.55
2022-11-12T12:58:26.249Z,13.52
2022-11-12T13:00:57.683Z,13.52
2022-11-12T13:03:50.939Z,13.51
2022-11-12T13:06:25.771Z,13.51
2022-11-12T13:08:56.735Z,13.51
2022-11-12T13:11:49.501Z,13.50
2022-11-12T13:14:51.313Z,13.49
2022-11-12T13:17:43.143Z,13.48
2022-11-12T13:20:38.194Z,13.49
2022-11-12T13:23:41.396Z,13.49
2022-11-12T13:26:59.875Z,13.51
2022-11-12T13:29:46.480Z,13.50
2022-11-12T13:32:34.607Z,13.48
2022-11-12T13:35:25.659Z,13.46
2022-11-12T13:37:54.757Z,13.47
2022-11-12T13:40:30.761Z,13.46
2022-11-12T13:43:03.319Z,13.45
2022-11-12T13:45:37.902Z,13.43
2022-11-12T13:48:07.856Z,13.40
2022-11-12T13:50:40.266Z,13.38
2022-11-12T13:53:09.913Z,13.36
2022-11-12T13:55:36.595Z,13.32
2022-11-12T13:58:03.276Z,13.28
2022-11-12T14:00:31.892Z,13.25
2022-11-12T14:03:01.652Z,13.20
2022-11-12T14:05:30.460Z,13.15
2022-11-12T14:08:17.774Z,13.10
2022-11-12T14:10:53.967Z,13.05
2022-11-12T14:13:42.269Z,12.99
2022-11-12T14:16:27.390Z,12.93
2022-11-12T14:19:12.098Z,12.87
2022-11-12T14:21:38.818Z,12.82
2022-11-12T14:24:06.025Z,12.77
2022-11-12T14:26:34.890Z,12.71
2022-11-12T14:29:01.700Z,12.64
2022-11-12T14:31:29.845Z,12.57
2022-11-12T14:33:56.500Z,12.50
2022-11-12T14:36:23.649Z,12.43
2022-11-12T14:38:53.455Z,12.36
2022-11-12T14:41:22.632Z,12.29
2022-11-12T14:44:07.418Z,12.21
2022-11-12T14:46:46.696Z,12.12
2022-11-12T14:49:20.050Z,12.05
2022-11-12T14:51:50.100Z,11.97
2022-11-12T14:54:26.206Z,11.88
2022-11-12T14:56:53.213Z,11.78
2022-11-12T14:59:20.286Z,11.69
2022-11-12T15:04:43.393Z,11.50
2022-11-12T15:07:24.379Z,11.40
2022-11-12T15:09:51.058Z,11.29
2022-11-12T15:12:22.223Z,11.19
2022-11-12T15:14:49.663Z,11.11
2022-11-12T15:17:35.718Z,11.01
2022-11-12T15:20:05.540Z,10.92
2022-11-12T15:22:33.828Z,10.82
2022-11-12T15:25:11.102Z,10.72
2022-11-12T15:27:40.477Z,10.62
2022-11-12T15:30:20.054Z,10.52
2022-11-12T15:32:47.110Z,10.40
2022-11-12T15:35:35.495Z,10.31
2022-11-12T15:38:06.836Z,10.24
2022-11-12T15:40:41.165Z,10.14
2022-11-12T15:43:13.828Z,10.06
2022-11-12T15:45:40.541Z,9.96
2022-11-12T15:48:10.971Z,9.88
2022-11-12T15:50:38.951Z,9.81
2022-11-12T15:53:05.623Z,9.73
2022-11-12T15:55:32.788Z,9.66
2022-11-12T15:57:59.525Z,9.58
2022-11-12T16:00:30.680Z,9.48
2022-11-12T16:02:59.359Z,9.41
2022-11-12T16:05:26.430Z,9.35
2022-11-12T16:07:54.530Z,9.27
2022-11-12T16:10:21.191Z,9.18
2022-11-12T16:12:48.057Z,9.11
2022-11-12T16:15:16.389Z,9.04
2022-11-12T16:17:43.017Z,8.96
2022-11-12T16:20:14.236Z,8.92
2022-11-12T16:22:40.917Z,8.83
2022-11-12T16:25:09.459Z,8.77
2022-11-12T16:27:38.048Z,8.71
2022-11-12T16:30:06.585Z,8.64
2022-11-12T16:32:33.149Z,8.58
2022-11-12T16:35:01.288Z,8.50
2022-11-12T16:37:28.227Z,8.43
2022-11-12T16:39:54.790Z,8.36
2022-11-12T16:42:23.032Z,8.30
2022-11-12T16:44:49.692Z,8.23
2022-11-12T16:47:16.332Z,8.18
2022-11-12T16:49:42.912Z,8.13
2022-11-12T16:52:10.109Z,8.07
2022-11-12T16:54:36.748Z,8.03
2022-11-12T16:57:03.649Z,7.95
2022-11-12T16:59:31.702Z,7.91
2022-11-12T17:01:58.463Z,7.86
2022-11-12T17:04:25.080Z,7.81
2022-11-12T17:06:51.762Z,7.77
2022-11-12T17:09:18.752Z,7.72
2022-11-12T17:11:45.564Z,7.67
2022-11-12T17:14:12.126Z,7.62
2022-11-12T17:16:40.070Z,7.57
2022-11-12T17:19:06.813Z,7.51
2022-11-12T17:21:33.415Z,7.47
2022-11-12T17:24:00.023Z,7.44
2022-11-12T17:26:26.652Z,7.40
2022-11-12T17:29:00.097Z,7.36
2022-11-12T17:31:28.956Z,7.31
2022-11-12T17:33:56.960Z,7.25
2022-11-12T17:36:26.267Z,7.21
2022-11-12T17:38:54.156Z,7.15
2022-11-12T17:41:20.813Z,7.11
2022-11-12T17:43:47.649Z,7.07
2022-11-12T17:46:14.612Z,7.03
2022-11-12T17:48:41.551Z,6.98
2022-11-12T17:51:12.340Z,6.96
2022-11-12T17:53:39.689Z,6.93
2022-11-12T17:56:07.776Z,6.89
2022-11-12T17:58:34.692Z,6.85
2022-11-12T18:01:08.582Z,6.80
2022-11-12T18:03:37.766Z,6.76
2022-11-12T18:06:04.878Z,6.72
2022-11-12T18:08:32.902Z,6.68
2022-11-12T18:10:59.600Z,6.64
2022-11-12T18:13:27.098Z,6.59
2022-11-12T18:15:53.963Z,6.55
2022-11-12T18:18:20.530Z,6.52
2022-11-12T18:20:47.299Z,6.46
2022-11-12T18:23:14.199Z,6.42
2022-11-12T18:25:42.289Z,6.39
2022-11-12T18:28:10.298Z,6.35
2022-11-12T18:30:37.894Z,6.32
2022-11-12T18:33:05.092Z,6.28
2022-11-12T18:35:31.716Z,6.23
2022-11-12T18:37:59.370Z,6.22
2022-11-12T18:40:26.027Z,6.18
2022-11-12T18:42:54.042Z,6.15
2022-11-12T18:45:20.646Z,6.12
2022-11-12T18:47:47.181Z,6.09
2022-11-12T18:50:13.847Z,6.05
2022-11-12T18:52:40.475Z,6.02
2022-11-12T18:55:08.235Z,5.98
2022-11-12T18:57:34.827Z,5.94
2022-11-12T19:00:03.535Z,5.90
2022-11-12T19:02:30.121Z,5.88
2022-11-12T19:04:56.766Z,5.86
2022-11-12T19:07:23.543Z,5.84
2022-11-12T19:09:50.218Z,5.80
2022-11-12T19:12:16.900Z,5.77
2022-11-12T19:14:43.503Z,5.75
2022-11-12T19:17:11.581Z,5.73
2022-11-12T19:19:38.192Z,5.69
2022-11-12T19:22:04.776Z,5.67
2022-11-12T19:24:31.445Z,5.63
2022-11-12T19:26:58.017Z,5.61
2022-11-12T19:29:24.636Z,5.59
2022-11-12T19:31:51.385Z,5.56
2022-11-12T19:34:19.472Z,5.53
2022-11-12T19:36:46.137Z,5.50
2022-11-12T19:39:12.780Z,5.48
2022-11-12T19:41:39.401Z,5.45
2022-11-12T19:44:06.703Z,5.44
2022-11-12T19:46:33.469Z,5.41
2022-11-12T19:49:00.034Z,5.38
2022-11-12T19:51:28.234Z,5.35
2022-11-12T19:53:55.108Z,5.33
2022-11-12T19:56:21.924Z,5.31
2022-11-12T19:58:49.252Z,5.28
2022-11-12T20:01:17.841Z,5.26
2022-11-12T20:03:44.668Z,5.23
2022-11-12T20:06:13.437Z,5.22
2022-11-12T20:08:41.510Z,5.20
2022-11-12T20:11:08.462Z,5.18
2022-11-12T20:13:35.162Z,5.15
2022-11-12T20:16:05.835Z,5.13
2022-11-12T20:18:32.473Z,5.10
2022-11-12T20:20:59.136Z,5.09
2022-11-12T20:23:26.258Z,5.06
2022-11-12T20:26:02.087Z,5.05
2022-11-12T20:28:28.709Z,5.01
2022-11-12T20:31:00.187Z,4.97
2022-11-12T20:33:27.557Z,4.94
2022-11-12T20:35:54.736Z,4.93
2022-11-12T20:38:21.338Z,4.92
2022-11-12T20:40:48.074Z,4.89
2022-11-12T20:43:16.457Z,4.88
2022-11-12T20:45:43.123Z,4.85
2022-11-12T20:48:09.730Z,4.84
2022-11-12T20:50:36.286Z,4.82
2022-11-12T20:53:02.875Z,4.81
2022-11-12T20:55:30.772Z,4.78
2022-11-12T20:57:57.589Z,4.77
2022-11-12T21:00:25.565Z,4.76
2022-11-12T21:02:52.259Z,4.73
2022-11-12T21:05:19.020Z,4.72
2022-11-12T21:07:45.574Z,4.70
2022-11-12T21:10:12.220Z,4.69
2022-11-12T21:12:38.821Z,4.65
2022-11-12T21:15:06.359Z,4.62
2022-11-12T21:17:34.351Z,4.60
2022-11-12T21:20:00.969Z,4.57
2022-11-12T21:22:27.648Z,4.55
2022-11-12T21:24:54.233Z,4.53
2022-11-12T21:27:20.772Z,4.51
2022-11-12T21:29:47.382Z,4.49
2022-11-12T21:32:13.992Z,4.47
2022-11-12T21:34:42.084Z,4.44
2022-11-12T21:37:08.791Z,4.43
2022-11-12T21:39:35.526Z,4.42
2022-11-12T21:42:02.170Z,4.41
2022-11-12T21:44:28.829Z,4.38
2022-11-12T21:46:55.450Z,4.38
2022-11-12T21:49:22.061Z,4.36
2022-11-12T21:51:50.019Z,4.35
2022-11-12T21:54:16.600Z,4.33
2022-11-12T21:56:43.208Z,4.31
2022-11-12T21:59:09.795Z,4.29
2022-11-12T22:01:36.956Z,4.27
2022-11-12T22:04:06.083Z,4.27
2022-11-12T22:06:36.792Z,4.26
2022-11-12T22:09:05.111Z,4.25
2022-11-12T22:11:31.781Z,4.24
2022-11-12T22:13:58.362Z,4.21
2022-11-12T22:16:26.834Z,4.20
2022-11-12T22:18:54.932Z,4.17
2022-11-12T22:21:23.326Z,4.15
2022-11-12T22:23:50.627Z,4.12
2022-11-12T22:26:20.767Z,4.10
2022-11-12T22:28:48.039Z,4.08
2022-11-12T22:31:16.576Z,4.07
2022-11-12T22:33:43.310Z,4.07
2022-11-12T22:36:12.478Z,4.05
2022-11-12T22:38:40.391Z,4.05
2022-11-12T22:41:09.176Z,4.04
2022-11-12T22:43:37.357Z,4.02
2022-11-12T22:46:05.774Z,4.03
2022-11-12T22:48:32.669Z,4.02
2022-11-12T22:51:00.016Z,4.02
2022-11-12T22:53:26.834Z,4.00
2022-11-12T22:55:53.646Z,4.00
2022-11-12T22:58:20.898Z,3.98
2022-11-12T23:00:48.886Z,3.98
2022-11-12T23:03:15.495Z,3.97
2022-11-12T23:05:42.115Z,3.97
2022-11-12T23:08:08.807Z,3.98
2022-11-12T23:10:35.506Z,4.00
2022-11-12T23:13:02.114Z,4.01
2022-11-12T23:15:28.836Z,4.03
2022-11-12T23:17:56.818Z,4.04
2022-11-12T23:20:23.388Z,4.05
2022-11-12T23:22:50.577Z,4.07
2022-11-12T23:25:17.340Z,4.09
2022-11-12T23:27:43.885Z,4.10
2022-11-12T23:30:11.506Z,4.12
2022-11-12T23:32:38.058Z,4.15
2022-11-12T23:35:07.410Z,4.18
2022-11-12T23:37:33.995Z,4.20
2022-11-12T23:40:00.703Z,4.22
2022-11-12T23:42:28.288Z,4.26
2022-11-12T23:44:54.961Z,4.30
2022-11-12T23:47:22.143Z,4.32
2022-11-12T23:49:48.834Z,4.36
2022-11-12T23:52:19.014Z,4.40
2022-11-12T23:54:45.674Z,4.42
2022-11-12T23:57:12.313Z,4.46
2022-11-12T23:59:38.902Z,4.48
